Time;durP1;ratioP1;P1;durP2;ratioP2;P2;SDS_P1;SDS_P2;PMS_P1;PMS_P2;Temp;Humidity;BMP_temperature;BMP_pressure;BME280_temperature;BME280_humidity;BME280_pressure;Samples;Min_cycle;Max_cycle;Signal;HPM_P1;HPM_P2
2021/10/10 00:02:14;;;;;;;58.63;33.65;;;7.10;99.90;;;;;;4961464;28;20027;-79
2021/10/10 00:04:39;;;;;;;55.38;28.55;;;7.10;99.90;;;;;;4959990;28;20042;-79
2021/10/10 00:07:05;;;;;;;58.10;32.70;;;7.10;99.90;;;;;;4959657;28;20027;-79
2021/10/10 00:09:30;;;;;;;51.50;29.98;;;7.10;99.90;;;;;;4960169;28;20369;-80
2021/10/10 00:11:56;;;;;;;51.67;30.10;;;7.10;99.90;;;;;;4960197;28;20042;-80
2021/10/10 00:14:22;;;;;;;72.03;30.83;;;7.10;99.90;;;;;;4959244;28;20030;-80
2021/10/10 00:16:47;;;;;;;60.10;32.65;;;7.10;99.90;;;;;;4960151;28;20027;-79
2021/10/10 00:19:13;;;;;;;53.20;30.30;;;7.00;99.90;;;;;;4959247;28;20126;-79
2021/10/10 00:21:38;;;;;;;54.70;30.98;;;7.00;99.90;;;;;;4960261;28;20026;-79
2021/10/10 00:24:04;;;;;;;53.70;31.23;;;7.10;99.90;;;;;;4959360;28;20496;-80
2021/10/10 00:26:29;;;;;;;51.75;29.25;;;7.00;99.90;;;;;;4959839;28;20032;-79
2021/10/10 00:28:55;;;;;;;47.25;28.30;;;7.00;99.90;;;;;;4959864;28;20027;-79
2021/10/10 00:31:21;;;;;;;48.45;28.95;;;7.00;99.90;;;;;;4958967;28;20070;-79
2021/10/10 00:33:46;;;;;;;54.28;30.80;;;6.90;99.90;;;;;;4959888;28;20360;-80
2021/10/10 00:36:12;;;;;;;60.30;30.77;;;6.90;99.90;;;;;;4959203;28;20046;-79
2021/10/10 00:38:37;;;;;;;54.60;30.42;;;6.90;99.90;;;;;;4959569;28;20043;-79
2021/10/10 00:41:05;;;;;;;47.28;27.35;;;6.90;99.90;;;;;;4959072;28;20043;-79
2021/10/10 00:43:30;;;;;;;50.60;25.75;;;6.80;99.90;;;;;;4959638;28;20106;-79
2021/10/10 00:45:56;;;;;;;46.75;27.23;;;6.80;99.90;;;;;;4950959;29;20056;-79
2021/10/10 00:48:21;;;;;;;40.80;24.63;;;6.80;99.90;;;;;;4939919;29;20036;-79
2021/10/10 00:50:47;;;;;;;44.33;26.50;;;6.80;99.90;;;;;;4943009;29;20121;-79
2021/10/10 00:53:17;;;;;;;63.70;34.70;;;6.80;99.90;;;;;;4959424;28;20432;-79
2021/10/10 00:55:45;;;;;;;50.95;30.17;;;6.80;99.90;;;;;;4959566;28;20106;-80
2021/10/10 00:58:13;;;;;;;57.90;31.48;;;6.80;99.90;;;;;;4955555;28;20058;-79
2021/10/10 01:00:39;;;;;;;59.25;33.15;;;6.80;99.90;;;;;;4956439;28;20032;-80
2021/10/10 01:03:06;;;;;;;53.30;29.52;;;6.90;99.90;;;;;;4955920;29;20038;-80
2021/10/10 01:05:31;;;;;;;41.92;27.48;;;6.90;99.90;;;;;;4956469;28;20033;-79
2021/10/10 01:07:57;;;;;;;49.13;27.60;;;6.80;99.90;;;;;;4955062;29;20027;-79
2021/10/10 01:10:23;;;;;;;40.50;24.38;;;6.70;99.90;;;;;;4956106;28;20034;-79
2021/10/10 01:12:49;;;;;;;47.63;29.50;;;6.70;99.90;;;;;;4956122;28;20027;-79
2021/10/10 01:15:15;;;;;;;50.38;29.40;;;6.70;99.90;;;;;;4956208;28;20027;-79
2021/10/10 01:17:40;;;;;;;56.65;28.77;;;6.60;99.90;;;;;;4955770;28;20040;-79
2021/10/10 01:20:08;;;;;;;46.45;28.00;;;6.60;99.90;;;;;;4956114;28;20039;-79
2021/10/10 01:22:34;;;;;;;99.18;29.60;;;6.60;99.90;;;;;;4956193;28;20031;-79
2021/10/10 01:25:00;;;;;;;49.33;27.83;;;6.60;99.90;;;;;;4956067;28;20107;-80
2021/10/10 01:27:26;;;;;;;51.95;29.80;;;6.60;99.90;;;;;;4955829;28;20111;-79
2021/10/10 01:29:52;;;;;;;43.47;28.45;;;6.60;99.90;;;;;;4954849;29;20540;-79
2021/10/10 01:32:18;;;;;;;58.53;30.85;;;6.50;99.90;;;;;;4955150;28;20027;-79
2021/10/10 01:34:44;;;;;;;97.53;33.22;;;6.50;99.90;;;;;;4954667;29;20027;-79
2021/10/10 01:37:15;;;;;;;64.43;32.58;;;6.50;99.90;;;;;;4956225;28;20031;-79
2021/10/10 01:39:41;;;;;;;57.38;32.80;;;6.50;99.90;;;;;;4956317;28;20408;-80
2021/10/10 01:42:07;;;;;;;59.15;33.05;;;6.50;99.90;;;;;;4957069;28;20023;-79
2021/10/10 01:44:33;;;;;;;57.78;32.25;;;6.50;99.90;;;;;;4952822;28;20027;-79
2021/10/10 01:46:59;;;;;;;66.07;34.95;;;6.50;99.90;;;;;;4937354;29;20035;-80
2021/10/10 01:49:24;;;;;;;76.78;38.08;;;6.40;99.90;;;;;;4936270;29;20110;-80
2021/10/10 01:51:50;;;;;;;67.10;36.10;;;6.40;99.90;;;;;;4936425;28;20060;-79
2021/10/10 01:54:16;;;;;;;59.65;33.95;;;6.40;99.90;;;;;;4956316;28;20464;-79
2021/10/10 01:56:42;;;;;;;57.72;34.20;;;6.40;99.90;;;;;;4955870;28;20031;-80
2021/10/10 01:59:08;;;;;;;59.15;33.85;;;6.30;99.90;;;;;;4955481;28;20050;-79
2021/10/10 02:01:33;;;;;;;71.35;36.58;;;6.30;99.90;;;;;;4955742;28;20086;-79
2021/10/10 02:03:59;;;;;;;58.33;32.95;;;6.30;99.90;;;;;;4956443;29;20086;-79
2021/10/10 02:06:25;;;;;;;64.82;35.90;;;6.30;99.90;;;;;;4956964;28;20034;-80
2021/10/10 02:08:51;;;;;;;49.45;30.65;;;6.20;99.90;;;;;;4956361;28;20070;-79
2021/10/10 02:11:17;;;;;;;50.17;29.98;;;6.20;99.90;;;;;;4956688;29;20054;-79
2021/10/10 02:13:42;;;;;;;59.33;32.72;;;6.20;99.90;;;;;;4956091;28;20019;-79
2021/10/10 02:16:08;;;;;;;60.05;31.88;;;6.20;99.90;;;;;;4955623;28;20035;-79
2021/10/10 02:18:34;;;;;;;59.60;32.08;;;6.10;99.90;;;;;;4955976;29;20062;-79
2021/10/10 02:21:00;;;;;;;52.65;30.63;;;6.10;99.90;;;;;;4957394;29;20023;-79
2021/10/10 02:23:25;;;;;;;51.25;30.13;;;6.10;99.90;;;;;;4955943;28;20085;-79
2021/10/10 02:25:51;;;;;;;47.30;29.13;;;6.00;99.90;;;;;;4956617;29;20019;-80
2021/10/10 02:28:16;;;;;;;53.70;29.25;;;6.00;99.90;;;;;;4954192;28;20383;-79
2021/10/10 02:30:42;;;;;;;55.10;29.95;;;6.00;99.90;;;;;;4956698;29;20019;-80
2021/10/10 02:33:07;;;;;;;49.90;29.60;;;5.90;99.90;;;;;;4955772;29;20387;-79
2021/10/10 02:35:33;;;;;;;59.33;32.97;;;5.90;99.90;;;;;;4956227;29;20460;-80
2021/10/10 02:37:58;;;;;;;40.05;26.15;;;5.90;99.90;;;;;;4955551;29;20043;-80
2021/10/10 02:40:24;;;;;;;52.25;30.60;;;5.90;99.90;;;;;;4955472;29;20403;-80
2021/10/10 02:42:49;;;;;;;55.60;29.88;;;5.90;99.90;;;;;;4956379;29;20151;-80
2021/10/10 02:45:15;;;;;;;41.25;23.98;;;5.80;99.90;;;;;;4956361;29;20051;-79
2021/10/10 02:47:40;;;;;;;35.40;22.33;;;5.80;99.90;;;;;;4954880;29;20452;-79
2021/10/10 02:50:07;;;;;;;43.80;24.75;;;5.70;99.90;;;;;;4955077;29;20019;-79
2021/10/10 02:52:33;;;;;;;39.42;24.40;;;5.60;99.90;;;;;;4955803;29;20059;-79
2021/10/10 02:54:58;;;;;;;43.67;27.45;;;5.70;99.90;;;;;;4955991;28;20087;-80
2021/10/10 02:57:24;;;;;;;43.88;26.63;;;5.60;99.90;;;;;;4955273;29;20039;-79
2021/10/10 02:59:49;;;;;;;47.08;29.08;;;5.60;99.90;;;;;;4953781;28;20026;-79
2021/10/10 03:02:15;;;;;;;45.00;27.70;;;5.60;99.90;;;;;;4955939;28;20023;-79
2021/10/10 03:04:40;;;;;;;41.78;25.58;;;5.60;99.90;;;;;;4953845;28;20063;-79
2021/10/10 03:07:06;;;;;;;28.10;19.45;;;5.50;99.90;;;;;;4948991;28;20110;-79
2021/10/10 03:09:31;;;;;;;28.42;19.80;;;5.50;99.90;;;;;;4955777;28;20066;-79
2021/10/10 03:11:57;;;;;;;30.25;21.10;;;5.50;99.90;;;;;;4955614;28;20034;-79
2021/10/10 03:14:23;;;;;;;47.63;27.13;;;5.50;99.90;;;;;;4955652;28;20140;-79
2021/10/10 03:16:48;;;;;;;44.10;27.30;;;5.50;99.90;;;;;;4955161;28;20031;-79
2021/10/10 03:19:14;;;;;;;38.35;24.58;;;5.50;99.90;;;;;;4955169;28;20050;-79
2021/10/10 03:21:40;;;;;;;40.00;25.70;;;5.50;99.90;;;;;;4954006;28;20015;-79
2021/10/10 03:24:06;;;;;;;44.65;26.80;;;5.50;99.90;;;;;;4955549;28;20046;-80
2021/10/10 03:26:31;;;;;;;37.90;25.13;;;5.50;99.90;;;;;;4955480;28;20101;-80
2021/10/10 03:32:18;;;;;;;45.88;26.80;;;5.40;99.90;;;;;;4954243;28;20033;-79
2021/10/10 03:34:44;;;;;;;39.08;25.40;;;5.40;99.90;;;;;;4955453;28;20031;-79
2021/10/10 03:37:10;;;;;;;49.67;28.60;;;5.40;99.90;;;;;;4954982;28;20600;-80
2021/10/10 03:39:35;;;;;;;44.40;26.75;;;5.40;99.90;;;;;;4955444;28;20070;-79
2021/10/10 03:42:00;;;;;;;55.92;29.13;;;5.40;99.90;;;;;;4954055;29;20415;-79
2021/10/10 03:44:26;;;;;;;55.45;32.35;;;5.40;99.90;;;;;;4964997;28;20038;-78
2021/10/10 03:46:51;;;;;;;65.57;34.38;;;5.40;99.90;;;;;;4950786;28;20024;-79
2021/10/10 03:49:17;;;;;;;58.30;34.22;;;5.40;99.90;;;;;;4953596;28;20027;-79
2021/10/10 03:51:43;;;;;;;57.45;33.15;;;5.40;99.90;;;;;;4948845;28;20035;-79
2021/10/10 03:54:55;;;;;;;53.30;30.88;;;5.30;99.90;;;;;;4934213;29;20389;-80
2021/10/10 03:57:03;;;;;;;51.90;30.27;;;5.30;99.90;;;;;;4934013;29;20441;-79
2021/10/10 03:59:28;;;;;;;60.47;33.75;;;5.30;99.90;;;;;;4933726;29;20044;-79
2021/10/10 04:01:54;;;;;;;70.40;33.75;;;5.30;99.90;;;;;;4934758;29;20035;-79
2021/10/10 04:04:19;;;;;;;62.90;31.63;;;5.30;99.90;;;;;;4933993;29;20480;-79
2021/10/10 04:06:45;;;;;;;66.15;32.72;;;5.40;99.90;;;;;;4934153;29;20024;-79
2021/10/10 04:09:10;;;;;;;58.88;31.70;;;5.40;99.90;;;;;;4950267;28;20062;-79
2021/10/10 04:11:36;;;;;;;67.15;31.08;;;5.40;99.90;;;;;;4953567;28;20446;-79
2021/10/10 04:14:01;;;;;;;62.38;31.83;;;5.40;99.90;;;;;;4952883;28;20027;-79
2021/10/10 04:16:27;;;;;;;64.00;31.27;;;5.40;99.90;;;;;;4953666;28;20087;-79
2021/10/10 04:18:52;;;;;;;83.07;28.33;;;5.40;99.90;;;;;;4953086;29;20050;-79
2021/10/10 04:21:18;;;;;;;62.70;29.58;;;5.30;99.90;;;;;;4953915;28;20027;-79
2021/10/10 04:23:43;;;;;;;45.80;27.27;;;5.30;99.90;;;;;;4962179;28;20032;-79
2021/10/10 04:26:09;;;;;;;55.75;28.50;;;5.30;99.90;;;;;;4966011;28;20083;-78
2021/10/10 04:28:34;;;;;;;76.50;31.08;;;5.30;99.90;;;;;;4976266;28;20047;-79
2021/10/10 04:31:00;;;;;;;50.47;27.13;;;5.30;99.90;;;;;;4971146;28;20435;-79
2021/10/10 04:33:25;;;;;;;50.60;27.88;;;5.30;99.90;;;;;;4956103;28;20027;-79
2021/10/10 04:35:51;;;;;;;50.13;27.77;;;5.20;99.90;;;;;;4956793;29;20046;-79
2021/10/10 04:38:16;;;;;;;47.92;28.48;;;5.20;99.90;;;;;;4955836;29;20039;-79
2021/10/10 04:40:43;;;;;;;79.00;28.98;;;5.20;99.90;;;;;;4936938;29;20056;-79
2021/10/10 04:43:09;;;;;;;62.97;24.73;;;5.10;99.90;;;;;;4936404;29;20547;-79
2021/10/10 04:45:35;;;;;;;126.60;29.88;;;5.10;99.90;;;;;;4938060;29;20086;-79
2021/10/10 04:48:01;;;;;;;54.75;24.52;;;5.00;99.90;;;;;;4937478;29;20035;-79
2021/10/10 04:50:27;;;;;;;56.97;26.30;;;4.90;99.90;;;;;;4960315;28;20070;-79
2021/10/10 04:52:52;;;;;;;39.50;24.98;;;4.90;99.90;;;;;;4956088;28;20423;-79
2021/10/10 04:55:18;;;;;;;45.25;24.70;;;4.90;99.90;;;;;;4954666;29;20031;-80
2021/10/10 04:57:43;;;;;;;36.85;25.50;;;4.80;99.90;;;;;;4956244;28;20418;-80
2021/10/10 05:00:10;;;;;;;55.15;27.58;;;4.80;99.90;;;;;;4956010;28;20027;-80
2021/10/10 05:02:35;;;;;;;53.17;29.00;;;4.80;99.90;;;;;;4956021;28;20034;-80
2021/10/10 05:05:01;;;;;;;42.35;27.88;;;4.70;99.90;;;;;;4955688;28;20027;-79
2021/10/10 05:07:27;;;;;;;41.05;28.92;;;4.70;99.90;;;;;;4956271;28;20032;-80
2021/10/10 05:09:52;;;;;;;40.35;27.92;;;4.70;99.90;;;;;;4956092;28;20031;-80
2021/10/10 05:12:18;;;;;;;50.20;27.92;;;4.60;99.90;;;;;;4954596;29;20502;-80
2021/10/10 05:14:43;;;;;;;38.65;27.42;;;4.60;99.90;;;;;;4955707;28;20066;-80
2021/10/10 05:17:10;;;;;;;40.58;28.70;;;4.60;99.90;;;;;;4955769;28;20023;-80
2021/10/10 05:19:35;;;;;;;36.67;26.75;;;4.60;99.90;;;;;;4956236;28;20054;-81
2021/10/10 05:22:01;;;;;;;46.58;30.23;;;4.50;99.90;;;;;;4955768;29;20404;-79
2021/10/10 05:24:27;;;;;;;39.20;26.95;;;4.50;99.90;;;;;;4955578;29;20050;-80
2021/10/10 05:26:52;;;;;;;41.25;29.67;;;4.50;99.90;;;;;;4955356;28;20392;-79
2021/10/10 05:29:18;;;;;;;37.47;27.65;;;4.50;99.90;;;;;;4955488;28;20027;-81
2021/10/10 05:31:44;;;;;;;35.50;27.52;;;4.40;99.90;;;;;;4955843;28;20058;-79
2021/10/10 05:34:09;;;;;;;34.22;26.67;;;4.40;99.90;;;;;;4955353;29;20058;-80
2021/10/10 05:36:35;;;;;;;34.97;27.38;;;4.40;99.90;;;;;;4955606;28;20061;-79
2021/10/10 05:39:00;;;;;;;40.55;30.02;;;4.30;99.90;;;;;;4947997;28;20071;-79
2021/10/10 05:41:26;;;;;;;33.88;26.73;;;4.30;99.90;;;;;;4936295;29;20052;-79
2021/10/10 05:43:51;;;;;;;34.30;27.90;;;4.30;99.90;;;;;;4935629;29;20405;-80
2021/10/10 05:46:17;;;;;;;35.33;27.50;;;4.30;99.90;;;;;;4936093;29;20091;-80
2021/10/10 05:48:42;;;;;;;40.03;30.33;;;4.30;99.90;;;;;;4950109;29;20616;-79
2021/10/10 05:51:08;;;;;;;36.25;27.88;;;4.30;99.90;;;;;;4955178;28;20027;-80
2021/10/10 05:53:36;;;;;;;38.20;28.27;;;4.20;99.90;;;;;;4955624;28;20527;-80
2021/10/10 05:56:03;;;;;;;35.83;27.25;;;4.20;99.90;;;;;;4955168;28;20058;-79
2021/10/10 05:58:32;;;;;;;36.53;28.20;;;4.20;99.90;;;;;;4955740;28;20062;-80
2021/10/10 06:00:58;;;;;;;38.05;27.90;;;4.20;99.90;;;;;;4955459;28;20148;-80
2021/10/10 06:03:23;;;;;;;37.22;27.45;;;4.20;99.90;;;;;;4954806;28;20105;-80
2021/10/10 06:05:49;;;;;;;42.30;30.50;;;4.20;99.90;;;;;;4955337;28;20027;-80
2021/10/10 06:08:15;;;;;;;34.17;26.70;;;4.10;99.90;;;;;;4954912;28;20032;-81
2021/10/10 06:10:43;;;;;;;36.17;26.52;;;4.10;99.90;;;;;;4955208;28;20086;-80
2021/10/10 06:13:09;;;;;;;35.35;27.33;;;4.10;99.90;;;;;;4955016;28;20034;-79
2021/10/10 06:15:35;;;;;;;35.30;27.40;;;4.10;99.90;;;;;;4955227;28;20396;-80
2021/10/10 06:18:01;;;;;;;32.40;26.75;;;4.10;99.90;;;;;;4955348;28;20058;-79
2021/10/10 06:20:26;;;;;;;32.92;25.90;;;4.20;99.90;;;;;;4953847;29;20423;-80
2021/10/10 06:22:52;;;;;;;34.63;27.13;;;4.20;99.90;;;;;;4954848;28;20031;-79
2021/10/10 06:25:18;;;;;;;30.60;24.00;;;4.20;99.90;;;;;;4954213;28;20106;-80
2021/10/10 06:27:43;;;;;;;32.97;26.02;;;4.20;99.90;;;;;;4954792;28;20027;-80
2021/10/10 06:30:09;;;;;;;33.38;26.10;;;4.30;99.90;;;;;;4954132;28;20035;-79
2021/10/10 06:32:35;;;;;;;31.73;24.83;;;4.30;99.90;;;;;;4954734;28;20031;-79
2021/10/10 06:35:00;;;;;;;35.03;26.42;;;4.30;99.90;;;;;;4954627;28;20106;-80
2021/10/10 06:37:26;;;;;;;32.67;26.90;;;4.30;99.90;;;;;;4938430;28;20054;-80
2021/10/10 06:39:51;;;;;;;35.80;27.55;;;4.30;99.90;;;;;;4935325;29;20083;-80
2021/10/10 06:42:17;;;;;;;33.95;27.13;;;4.40;99.90;;;;;;4934956;29;20027;-80
2021/10/10 06:44:43;;;;;;;34.08;26.05;;;4.40;99.90;;;;;;4935417;29;20051;-80
2021/10/10 06:47:09;;;;;;;35.13;28.15;;;4.40;99.90;;;;;;4934867;29;20054;-80
2021/10/10 06:49:35;;;;;;;33.20;25.88;;;4.50;99.90;;;;;;4935211;29;20567;-80
2021/10/10 06:52:00;;;;;;;34.05;27.75;;;4.50;99.90;;;;;;4935015;29;20043;-80
2021/10/10 06:54:26;;;;;;;36.10;29.25;;;4.60;99.90;;;;;;4945334;28;20085;-80
2021/10/10 06:56:51;;;;;;;32.15;25.73;;;4.70;99.90;;;;;;4954506;28;20031;-81
2021/10/10 06:59:17;;;;;;;36.53;28.25;;;4.80;99.90;;;;;;4953688;28;20054;-80
2021/10/10 07:01:44;;;;;;;32.55;26.15;;;4.90;99.90;;;;;;4953437;28;20028;-81
2021/10/10 07:04:09;;;;;;;37.25;28.42;;;4.90;99.90;;;;;;4954032;28;20032;-80
2021/10/10 07:06:35;;;;;;;32.55;26.95;;;5.00;99.90;;;;;;4954355;28;20499;-80
2021/10/10 07:09:01;;;;;;;33.28;27.52;;;5.10;99.90;;;;;;4954118;29;20391;-80
2021/10/10 07:11:26;;;;;;;33.42;26.42;;;5.20;99.90;;;;;;4953846;28;20175;-79
2021/10/10 07:13:52;;;;;;;33.20;27.42;;;5.40;99.90;;;;;;4954118;28;20514;-80
2021/10/10 07:16:22;;;;;;;36.35;28.48;;;5.50;99.90;;;;;;4953601;28;20035;-80
2021/10/10 07:18:49;;;;;;;34.92;28.77;;;5.60;99.90;;;;;;4954161;28;20040;-80
2021/10/10 07:21:24;;;;;;;34.78;28.48;;;5.70;99.90;;;;;;4953896;28;20094;-79
2021/10/10 07:26:22;;;;;;;37.63;29.67;;;6.00;99.90;;;;;;4953770;28;20020;-80
2021/10/10 07:28:48;;;;;;;43.25;33.28;;;6.20;99.90;;;;;;4954232;28;20028;-80
2021/10/10 07:31:14;;;;;;;50.15;35.40;;;6.30;99.90;;;;;;4953591;28;20511;-80
2021/10/10 07:33:40;;;;;;;51.50;36.05;;;6.50;99.90;;;;;;4954116;28;20062;-80
2021/10/10 07:36:06;;;;;;;53.70;37.78;;;6.70;99.90;;;;;;4937607;28;20031;-80
2021/10/10 07:38:32;;;;;;;62.08;39.67;;;6.90;99.90;;;;;;4951041;28;20514;-80
2021/10/10 07:40:59;;;;;;;61.63;40.25;;;7.10;99.90;;;;;;4953475;28;20047;-79
2021/10/10 07:43:25;;;;;;;61.88;39.08;;;7.20;99.90;;;;;;4953466;28;20089;-80
2021/10/10 07:45:51;;;;;;;74.88;40.85;;;7.30;99.90;;;;;;4953727;29;20031;-80
2021/10/10 07:48:17;;;;;;;54.72;37.72;;;7.40;99.90;;;;;;4953160;28;20095;-80
2021/10/10 07:50:45;;;;;;;62.60;42.42;;;7.50;99.90;;;;;;4953469;28;20031;-80
2021/10/10 07:53:11;;;;;;;58.63;40.55;;;7.70;99.90;;;;;;4953184;28;20053;-80
2021/10/10 07:55:37;;;;;;;70.90;43.95;;;7.90;99.90;;;;;;4953562;28;20544;-80
2021/10/10 07:58:02;;;;;;;64.22;42.33;;;8.00;99.90;;;;;;4953030;28;20036;-80
2021/10/10 08:00:30;;;;;;;71.00;45.17;;;8.10;99.90;;;;;;4953476;28;20030;-80
2021/10/10 08:02:58;;;;;;;68.43;45.63;;;8.20;99.90;;;;;;4953627;28;20480;-80
2021/10/10 08:05:27;;;;;;;74.00;47.90;;;8.40;99.90;;;;;;4951864;29;20023;-80
2021/10/10 08:07:54;;;;;;;68.55;45.47;;;8.60;99.90;;;;;;4955933;28;20020;-80
2021/10/10 08:10:20;;;;;;;81.75;49.40;;;8.70;99.90;;;;;;4957139;28;20093;-80
2021/10/10 08:12:46;;;;;;;78.50;49.83;;;8.80;99.90;;;;;;4957411;28;20368;-80
2021/10/10 08:15:12;;;;;;;82.85;51.17;;;8.90;99.90;;;;;;4956919;28;20086;-80
2021/10/10 08:17:38;;;;;;;84.63;52.80;;;9.00;99.90;;;;;;4956853;28;20032;-80
2021/10/10 08:20:05;;;;;;;84.55;53.50;;;9.10;99.90;;;;;;4957086;28;20101;-80
2021/10/10 08:22:34;;;;;;;75.00;47.17;;;9.20;99.90;;;;;;4957137;28;20078;-80
2021/10/10 08:24:59;;;;;;;70.47;45.53;;;9.20;99.90;;;;;;4956885;28;20027;-79
2021/10/10 08:27:25;;;;;;;64.40;42.90;;;9.30;99.90;;;;;;4955675;29;20388;-80
2021/10/10 08:29:51;;;;;;;64.65;40.90;;;9.30;99.90;;;;;;4957062;28;20416;-80
2021/10/10 08:32:16;;;;;;;61.05;41.80;;;9.30;99.90;;;;;;4956977;28;20361;-80
2021/10/10 08:34:42;;;;;;;64.30;43.60;;;9.30;99.90;;;;;;4945862;28;20121;-81
2021/10/10 08:37:08;;;;;;;71.57;46.42;;;9.30;99.90;;;;;;4956589;29;20090;-80
2021/10/10 08:39:34;;;;;;;64.82;43.78;;;9.30;99.90;;;;;;4956761;28;20101;-80
2021/10/10 08:42:02;;;;;;;71.07;46.08;;;9.40;99.90;;;;;;4957502;28;20032;-79
2021/10/10 08:44:38;;;;;;;74.13;45.45;;;9.50;99.90;;;;;;4957891;28;20031;-79
2021/10/10 08:47:07;;;;;;;105.28;44.38;;;9.60;99.90;;;;;;4957377;28;20155;-80
2021/10/10 08:49:35;;;;;;;92.90;45.97;;;9.60;99.90;;;;;;4959257;28;20023;-79
2021/10/10 08:52:05;;;;;;;147.05;49.83;;;9.60;99.90;;;;;;4955631;29;20043;-80
2021/10/10 08:54:30;;;;;;;136.02;49.10;;;9.60;99.90;;;;;;4956970;28;20090;-80
2021/10/10 08:56:57;;;;;;;79.43;44.42;;;9.70;99.90;;;;;;4956742;29;20027;-80
2021/10/10 08:59:24;;;;;;;103.18;46.13;;;9.70;99.90;;;;;;4956154;28;20070;-81
2021/10/10 09:01:52;;;;;;;104.05;44.92;;;9.70;99.90;;;;;;4956868;28;20030;-81
2021/10/10 09:04:17;;;;;;;76.38;45.60;;;9.80;99.90;;;;;;4954974;29;20492;-79
2021/10/10 09:06:43;;;;;;;64.32;42.22;;;9.90;99.90;;;;;;4956522;28;20118;-80
2021/10/10 09:09:30;;;;;;;85.18;46.60;;;10.00;99.90;;;;;;4954338;29;20114;-80
2021/10/10 09:12:11;;;;;;;83.25;47.90;;;10.20;99.90;;;;;;4956217;29;20019;-80
2021/10/10 09:14:50;;;;;;;73.85;46.83;;;10.30;99.90;;;;;;4956208;28;20030;-81
2021/10/10 09:17:23;;;;;;;65.68;43.88;;;10.40;99.90;;;;;;4955989;28;20027;-80
2021/10/10 09:19:51;;;;;;;78.72;47.45;;;10.40;99.90;;;;;;4955277;28;20396;-80
2021/10/10 09:22:17;;;;;;;67.93;43.92;;;10.50;99.90;;;;;;4955841;28;20046;-80
2021/10/10 09:24:43;;;;;;;75.22;48.40;;;10.50;99.90;;;;;;4956136;28;20031;-80
2021/10/10 09:27:13;;;;;;;73.43;48.67;;;10.50;99.90;;;;;;4955755;28;20053;-80
2021/10/10 09:29:43;;;;;;;67.25;44.85;;;10.60;99.90;;;;;;4956240;28;20023;-78
2021/10/10 09:32:16;;;;;;;66.88;45.83;;;10.70;99.90;;;;;;4954276;28;20523;-78
2021/10/10 09:34:42;;;;;;;78.10;49.40;;;10.70;99.90;;;;;;4940338;28;20031;-78
2021/10/10 09:37:12;;;;;;;71.80;46.38;;;10.90;99.90;;;;;;4939333;29;20392;-81
2021/10/10 09:39:45;;;;;;;79.82;49.75;;;10.90;99.90;;;;;;4955826;28;20688;-81
2021/10/10 09:42:11;;;;;;;69.38;46.67;;;11.00;99.90;;;;;;4955253;28;20023;-81
2021/10/10 09:44:47;;;;;;;70.68;48.35;;;11.10;99.90;;;;;;4955579;28;20479;-81
2021/10/10 09:47:14;;;;;;;72.85;49.15;;;11.30;99.90;;;;;;4955548;28;20487;-80
2021/10/10 09:49:39;;;;;;;72.90;50.72;;;11.50;99.90;;;;;;4955416;28;20031;-80
2021/10/10 09:52:14;;;;;;;67.68;49.33;;;11.60;99.90;;;;;;4955179;29;20028;-80
2021/10/10 09:55:10;;;;;;;69.40;48.10;;;11.60;99.90;;;;;;4954175;29;20051;-80
2021/10/10 09:57:45;;;;;;;72.35;47.42;;;11.50;99.90;;;;;;4954099;29;20035;-81
2021/10/10 10:00:28;;;;;;;74.22;50.17;;;11.50;99.90;;;;;;4955143;28;20027;-81
2021/10/10 10:03:11;;;;;;;75.00;49.60;;;11.50;99.90;;;;;;4955474;28;20155;-78
2021/10/10 10:05:37;;;;;;;71.93;48.30;;;11.40;99.90;;;;;;4955599;28;20114;-81
2021/10/10 10:08:04;;;;;;;73.35;49.45;;;11.40;99.90;;;;;;4954496;28;20119;-80
2021/10/10 10:10:32;;;;;;;70.50;47.55;;;11.40;99.90;;;;;;4955198;28;20131;-81
2021/10/10 10:13:00;;;;;;;76.78;52.20;;;11.50;99.90;;;;;;4955134;28;20046;-80
2021/10/10 10:15:31;;;;;;;76.82;50.90;;;11.50;99.90;;;;;;4954829;28;20023;-80
2021/10/10 10:17:57;;;;;;;68.88;48.40;;;11.60;99.90;;;;;;4954524;28;20537;-81
2021/10/10 10:20:25;;;;;;;69.60;48.67;;;11.70;99.90;;;;;;4954680;28;20115;-79
2021/10/10 10:22:52;;;;;;;65.93;46.58;;;11.80;99.90;;;;;;4955174;28;20020;-79
2021/10/10 10:25:19;;;;;;;72.07;48.78;;;11.90;99.90;;;;;;4954454;28;20114;-78
2021/10/10 10:27:45;;;;;;;64.47;45.08;;;12.00;99.90;;;;;;4954819;28;20058;-79
2021/10/10 10:30:11;;;;;;;64.35;43.10;;;12.10;99.90;;;;;;4953931;28;20031;-80
2021/10/10 10:32:37;;;;;;;70.82;48.20;;;12.30;99.90;;;;;;4944509;29;20028;-80
2021/10/10 10:35:11;;;;;;;72.03;48.05;;;12.30;99.90;;;;;;4935303;29;20024;-78
2021/10/10 10:37:43;;;;;;;68.15;47.28;;;12.40;99.90;;;;;;4935872;29;20033;-80
2021/10/10 10:40:15;;;;;;;59.50;43.53;;;12.50;99.90;;;;;;4935002;29;20191;-80
2021/10/10 10:42:45;;;;;;;63.17;43.93;;;12.60;99.90;;;;;;4935328;29;20307;-80
2021/10/10 10:45:25;;;;;;;58.90;43.75;;;12.60;99.90;;;;;;4952049;29;20050;-79
2021/10/10 10:47:53;;;;;;;60.28;43.13;;;12.70;99.90;;;;;;4954302;28;20634;-80
2021/10/10 10:50:41;;;;;;;60.92;43.80;;;12.80;99.90;;;;;;4953901;28;20086;-80
2021/10/10 10:53:15;;;;;;;61.08;40.85;;;12.90;99.90;;;;;;4954211;28;20476;-80
2021/10/10 10:55:52;;;;;;;54.22;40.30;;;13.00;99.90;;;;;;4954398;28;20019;-80
2021/10/10 10:58:17;;;;;;;57.58;39.80;;;13.10;99.90;;;;;;4953760;28;20066;-80
2021/10/10 11:00:45;;;;;;;57.50;41.67;;;13.10;99.90;;;;;;4949667;29;20070;-80
2021/10/10 11:03:21;;;;;;;58.97;40.63;;;13.30;99.90;;;;;;4934785;29;20035;-80
2021/10/10 11:05:53;;;;;;;61.58;41.90;;;13.40;99.90;;;;;;4934680;28;20058;-80
2021/10/10 11:08:22;;;;;;;58.47;42.08;;;13.40;99.90;;;;;;4942957;29;20030;-80
2021/10/10 11:11:08;;;;;;;54.58;39.97;;;13.60;99.90;;;;;;4953532;29;20082;-80
2021/10/10 11:13:34;;;;;;;55.30;38.40;;;13.70;99.90;;;;;;4954537;28;20054;-80
2021/10/10 11:16:14;;;;;;;57.47;39.22;;;13.80;99.90;;;;;;4954030;28;20444;-80
2021/10/10 11:19:04;;;;;;;61.40;41.28;;;13.90;99.90;;;;;;4954010;28;20035;-80
2021/10/10 11:21:41;;;;;;;51.60;37.22;;;13.90;99.90;;;;;;4950087;28;20504;-80
2021/10/10 11:24:20;;;;;;;50.72;37.55;;;13.90;99.90;;;;;;4953419;28;20029;-79
2021/10/10 11:26:48;;;;;;;52.38;38.05;;;14.00;99.90;;;;;;4953967;28;20027;-80
2021/10/10 11:29:16;;;;;;;53.92;38.60;;;14.20;99.90;;;;;;4953331;28;20516;-80
2021/10/10 11:31:43;;;;;;;50.35;36.30;;;14.30;99.90;;;;;;4939243;28;20504;-80
2021/10/10 11:34:19;;;;;;;46.95;33.65;;;14.30;99.90;;;;;;4934386;29;20509;-80
2021/10/10 11:36:50;;;;;;;51.65;37.63;;;14.50;99.90;;;;;;4934716;29;20499;-80
2021/10/10 11:39:28;;;;;;;48.47;35.92;;;14.50;99.90;;;;;;4934128;29;20047;-80
2021/10/10 11:41:57;;;;;;;46.10;34.33;;;14.60;99.90;;;;;;4934097;29;20028;-80
2021/10/10 11:44:34;;;;;;;43.47;30.80;;;14.70;99.90;;;;;;4934699;29;20028;-80
2021/10/10 11:47:02;;;;;;;47.15;32.47;;;14.80;99.90;;;;;;4934703;29;20509;-80
2021/10/10 11:49:40;;;;;;;45.42;32.00;;;14.90;99.90;;;;;;4934584;29;20035;-80
2021/10/10 11:52:56;;;;;;;45.13;32.25;;;15.00;99.90;;;;;;4935925;29;20032;-81
2021/10/10 11:55:12;;;;;;;40.25;31.00;;;15.10;99.90;;;;;;4950275;29;20034;-80
2021/10/10 11:57:38;;;;;;;46.20;30.10;;;15.10;99.90;;;;;;4953569;28;20059;-81
2021/10/10 12:00:06;;;;;;;42.40;32.08;;;15.30;99.90;;;;;;4953465;28;20058;-80
2021/10/10 12:02:46;;;;;;;43.20;29.75;;;15.30;99.90;;;;;;4952292;29;20383;-80
2021/10/10 12:05:17;;;;;;;43.80;30.60;;;15.30;99.90;;;;;;4952947;29;20031;-81
2021/10/10 12:07:44;;;;;;;40.30;29.58;;;15.40;99.90;;;;;;4953319;28;20030;-80
2021/10/10 12:10:18;;;;;;;43.78;29.95;;;15.50;99.90;;;;;;4944979;28;20395;-81
2021/10/10 12:12:45;;;;;;;46.88;30.27;;;15.50;99.90;;;;;;4934650;29;20120;-81
2021/10/10 12:15:12;;;;;;;43.38;29.45;;;15.50;99.90;;;;;;4941793;29;20027;-80
2021/10/10 12:17:48;;;;;;;40.30;30.10;;;15.60;99.70;;;;;;4950930;28;20046;-80
2021/10/10 12:20:23;;;;;;;42.33;29.95;;;15.70;99.80;;;;;;4946782;29;20031;-79
2021/10/10 12:23:00;;;;;;;42.72;30.35;;;15.80;99.80;;;;;;4947710;29;20106;-80
2021/10/10 12:25:29;;;;;;;41.90;29.95;;;16.00;99.40;;;;;;4944352;28;20027;-80
2021/10/10 12:28:17;;;;;;;42.25;30.92;;;15.90;99.00;;;;;;4942238;28;20028;-80
2021/10/10 12:30:54;;;;;;;45.20;31.33;;;16.00;99.00;;;;;;4943477;29;20031;-79
2021/10/10 12:33:38;;;;;;;43.38;30.42;;;16.00;98.40;;;;;;4940642;28;20098;-80
2021/10/10 12:36:14;;;;;;;41.80;29.50;;;16.10;98.40;;;;;;4938075;29;20237;-80
2021/10/10 12:38:48;;;;;;;39.97;28.92;;;16.10;98.20;;;;;;4945122;29;20043;-80
2021/10/10 12:41:21;;;;;;;43.35;30.42;;;16.20;98.20;;;;;;4937780;28;20047;-80
2021/10/10 12:43:54;;;;;;;45.03;30.45;;;16.20;97.50;;;;;;4938675;29;20039;-80